createdAt,value
2019-05-02T00:02:24.124Z,24.27
2019-05-02T00:04:51.068Z,25.50
2019-05-02T00:07:21.806Z,29.37
2019-05-02T00:09:51.363Z,24.52
2019-05-02T00:12:22.018Z,24.63
2019-05-02T00:14:50.951Z,24.30
2019-05-02T00:17:25.679Z,25.77
2019-05-02T00:19:51.687Z,24.52
2019-05-02T00:22:20.426Z,22.35
2019-05-02T00:24:49.080Z,24.77
2019-05-02T00:27:17.861Z,22.82
2019-05-02T00:29:46.574Z,25.72
2019-05-02T00:32:18.365Z,23.30
2019-05-02T00:34:45.795Z,23.50
2019-05-02T00:37:19.051Z,24.37
2019-05-02T00:39:49.209Z,19.95
2019-05-02T00:42:17.603Z,27.17
2019-05-02T00:44:48.374Z,25.32
2019-05-02T00:47:23.244Z,25.57
2019-05-02T00:49:51.968Z,23.60
2019-05-02T00:52:21.934Z,21.10
2019-05-02T00:54:54.950Z,24.85
2019-05-02T00:57:21.809Z,26.82
2019-05-02T00:59:50.462Z,22.93
2019-05-02T01:02:20.871Z,22.65
2019-05-02T01:04:50.580Z,25.48
2019-05-02T01:07:20.328Z,23.77
2019-05-02T01:09:50.098Z,22.52
2019-05-02T01:12:26.246Z,22.77
2019-05-02T01:14:49.591Z,22.07
2019-05-02T01:17:20.060Z,25.12
2019-05-02T01:19:51.387Z,23.50
2019-05-02T01:22:19.228Z,25.27
2019-05-02T01:24:48.473Z,27.07
2019-05-02T01:27:24.528Z,23.75
2019-05-02T01:30:12.037Z,25.62
2019-05-02T01:33:01.407Z,31.80
2019-05-02T01:35:31.521Z,27.48
2019-05-02T01:38:18.126Z,27.45
2019-05-02T01:40:53.270Z,29.23
2019-05-02T01:43:23.992Z,27.35
2019-05-02T01:45:54.230Z,28.23
2019-05-02T01:48:23.181Z,27.15
2019-05-02T01:50:52.611Z,31.35
2019-05-02T01:53:22.112Z,30.27
2019-05-02T01:55:52.086Z,27.98
2019-05-02T01:58:22.920Z,35.43
2019-05-02T02:00:52.154Z,31.30
2019-05-02T02:03:20.912Z,27.55
2019-05-02T02:05:49.995Z,31.75
2019-05-02T02:08:19.534Z,31.12
2019-05-02T02:10:50.779Z,28.98
2019-05-02T02:13:18.934Z,26.87
2019-05-02T02:15:48.114Z,27.15
2019-05-02T02:18:22.185Z,30.45
2019-05-02T02:20:56.091Z,38.33
2019-05-02T02:23:29.076Z,27.50
2019-05-02T02:25:59.347Z,26.95
2019-05-02T02:28:32.100Z,26.15
2019-05-02T02:31:04.787Z,28.75
2019-05-02T02:33:29.059Z,25.27
2019-05-02T02:35:58.987Z,26.85
2019-05-02T02:38:33.557Z,28.92
2019-05-02T02:40:58.349Z,26.93
2019-05-02T02:43:34.371Z,26.68
2019-05-02T02:46:05.355Z,22.05
2019-05-02T02:48:40.447Z,25.48
2019-05-02T02:51:05.433Z,22.22
2019-05-02T02:53:35.664Z,23.45
2019-05-02T02:56:08.987Z,22.17
2019-05-02T02:58:45.194Z,23.90
2019-05-02T03:01:08.169Z,29.55
2019-05-02T03:03:37.810Z,25.50
2019-05-02T03:06:08.198Z,22.10
2019-05-02T03:08:45.135Z,22.32
2019-05-02T03:11:09.242Z,21.30
2019-05-02T03:13:52.678Z,21.68
2019-05-02T03:16:23.770Z,16.60
2019-05-02T03:18:52.533Z,19.20
2019-05-02T03:21:22.573Z,16.85
2019-05-02T03:24:01.809Z,17.77
2019-05-02T03:26:24.188Z,18.15
2019-05-02T03:28:58.560Z,19.87
2019-05-02T03:31:29.737Z,14.30
2019-05-02T03:34:00.177Z,16.25
2019-05-02T03:36:30.097Z,13.70
2019-05-02T03:38:59.415Z,10.23
2019-05-02T03:41:28.559Z,13.98
2019-05-02T03:44:10.572Z,9.03
2019-05-02T03:46:28.136Z,11.93
2019-05-02T03:49:05.781Z,14.58
2019-05-02T03:51:27.550Z,11.78
2019-05-02T03:54:06.328Z,11.48
2019-05-02T03:56:27.751Z,9.95
2019-05-02T03:58:58.210Z,11.63
2019-05-02T04:01:27.499Z,13.65
2019-05-02T04:03:56.259Z,14.70
2019-05-02T04:06:25.082Z,8.73
2019-05-02T04:09:00.064Z,12.53
2019-05-02T04:11:32.822Z,20.85
2019-05-02T04:13:57.598Z,11.83
2019-05-02T04:16:30.889Z,16.97
2019-05-02T04:19:02.017Z,7.53
2019-05-02T04:21:31.203Z,10.28
2019-05-02T04:24:12.789Z,15.65
2019-05-02T04:26:31.818Z,11.55
2019-05-02T04:29:00.623Z,7.78
2019-05-02T04:31:31.923Z,10.30
2019-05-02T04:34:00.335Z,11.50
2019-05-02T04:36:29.116Z,12.30
2019-05-02T04:38:59.562Z,12.18
2019-05-02T04:41:30.724Z,6.25
2019-05-02T04:44:01.520Z,15.38
2019-05-02T04:46:31.169Z,11.10
2019-05-02T04:49:00.316Z,9.15
2019-05-02T04:51:31.862Z,12.00
2019-05-02T04:53:59.458Z,13.43
2019-05-02T04:56:29.320Z,13.70
2019-05-02T04:59:01.439Z,11.55
2019-05-02T05:01:33.158Z,7.80
2019-05-02T05:04:02.980Z,3.80
2019-05-02T05:06:29.358Z,9.05
2019-05-02T05:08:58.583Z,9.95
2019-05-02T05:11:27.516Z,8.98
2019-05-02T05:13:59.325Z,9.18
2019-05-02T05:16:28.616Z,8.33
2019-05-02T05:18:57.811Z,11.50
2019-05-02T05:21:28.597Z,15.23
2019-05-02T05:24:01.312Z,10.55
2019-05-02T05:26:33.777Z,12.28
2019-05-02T05:29:01.911Z,13.32
2019-05-02T05:31:31.552Z,9.38
2019-05-02T05:34:00.740Z,11.00
2019-05-02T05:36:33.760Z,7.00
2019-05-02T05:39:02.956Z,6.17
2019-05-02T05:41:30.505Z,12.53
2019-05-02T05:43:59.149Z,7.53
2019-05-02T05:46:28.225Z,10.43
2019-05-02T05:48:58.325Z,6.60
2019-05-02T05:51:27.829Z,7.05
2019-05-02T05:54:02.819Z,7.97
2019-05-02T05:56:32.618Z,10.50
2019-05-02T05:58:59.333Z,10.68
2019-05-02T06:01:33.932Z,10.30
2019-05-02T06:04:00.168Z,7.87
2019-05-02T06:06:29.096Z,6.37
2019-05-02T06:08:58.294Z,12.00
2019-05-02T06:11:27.005Z,9.10
2019-05-02T06:13:55.715Z,10.23
2019-05-02T06:16:24.823Z,15.95
2019-05-02T06:18:53.536Z,5.87
2019-05-02T06:21:22.255Z,8.55
2019-05-02T06:23:51.492Z,12.35
2019-05-02T06:26:20.580Z,9.58
2019-05-02T06:28:49.302Z,10.25
2019-05-02T06:31:18.401Z,7.42
2019-05-02T06:33:47.121Z,10.10
2019-05-02T06:36:16.026Z,13.03
2019-05-02T06:38:44.782Z,5.60
2019-05-02T06:41:16.126Z,8.10
2019-05-02T06:43:46.551Z,8.63
2019-05-02T06:46:16.802Z,6.72
2019-05-02T06:48:48.282Z,9.60
2019-05-02T06:51:19.609Z,10.03
2019-05-02T06:53:48.971Z,12.13
2019-05-02T06:56:17.835Z,8.00
2019-05-02T06:58:46.549Z,9.83
2019-05-02T07:01:16.264Z,11.57
2019-05-02T07:03:47.530Z,9.58
2019-05-02T07:06:16.485Z,6.15
2019-05-02T07:08:46.153Z,10.23
2019-05-02T07:11:14.992Z,9.63
2019-05-02T07:13:43.849Z,7.55
2019-05-02T07:16:36.888Z,6.20
2019-05-02T07:18:51.399Z,5.58
2019-05-02T07:21:23.479Z,7.30
2019-05-02T07:23:53.626Z,9.40
2019-05-02T07:26:23.506Z,9.45
2019-05-02T07:28:52.352Z,7.67
2019-05-02T07:31:21.553Z,6.75
2019-05-02T07:33:50.580Z,4.25
2019-05-02T07:36:19.190Z,4.05
2019-05-02T07:38:50.121Z,5.80
2019-05-02T07:41:19.164Z,3.50
2019-05-02T07:43:52.171Z,6.78
2019-05-02T07:46:20.993Z,4.78
2019-05-02T07:48:54.662Z,4.70
2019-05-02T07:51:21.296Z,5.85
2019-05-02T07:53:50.042Z,3.70
2019-05-02T07:56:19.508Z,3.37
2019-05-02T07:58:48.393Z,5.85
2019-05-02T08:01:17.423Z,6.20
2019-05-02T08:03:46.249Z,8.03
2019-05-02T08:06:15.882Z,5.08
2019-05-02T08:08:44.910Z,4.20
2019-05-02T08:11:13.934Z,5.47
2019-05-02T08:13:42.685Z,6.08
2019-05-02T08:16:11.985Z,5.42
2019-05-02T08:18:41.102Z,8.45
2019-05-02T08:21:09.775Z,4.15
2019-05-02T08:23:39.951Z,5.30
2019-05-02T08:26:08.654Z,4.83
2019-05-02T08:28:39.255Z,5.72
2019-05-02T08:31:08.398Z,4.58
2019-05-02T08:33:37.036Z,4.20
2019-05-02T08:36:06.134Z,4.25
2019-05-02T08:38:35.288Z,4.83
2019-05-02T08:41:04.439Z,5.67
2019-05-02T08:43:33.542Z,5.00
2019-05-02T08:46:02.338Z,5.80
2019-05-02T08:48:31.076Z,7.87
2019-05-02T08:50:59.783Z,4.10
2019-05-02T08:53:29.010Z,2.02
2019-05-02T08:55:57.906Z,5.50
2019-05-02T08:58:27.217Z,5.10
2019-05-02T09:00:56.397Z,7.15
2019-05-02T09:03:26.201Z,4.00
2019-05-02T09:06:05.501Z,5.20
2019-05-02T09:08:27.264Z,6.95
2019-05-02T09:10:55.975Z,9.18
2019-05-02T09:13:29.079Z,5.33
2019-05-02T09:15:55.422Z,4.30
2019-05-02T09:18:30.038Z,3.55
2019-05-02T09:20:56.500Z,5.28
2019-05-02T09:23:27.554Z,5.62
2019-05-02T09:25:56.310Z,10.82
2019-05-02T09:28:25.554Z,2.87
2019-05-02T09:30:57.491Z,4.95
2019-05-02T09:33:25.479Z,5.62
2019-05-02T09:35:54.204Z,8.23
2019-05-02T09:38:23.454Z,4.20
2019-05-02T09:40:56.067Z,5.60
2019-05-02T09:43:22.965Z,6.85
2019-05-02T09:45:52.180Z,5.80
2019-05-02T09:48:22.864Z,5.35
2019-05-02T09:50:52.815Z,7.10
2019-05-02T09:53:25.528Z,6.80
2019-05-02T09:55:57.257Z,3.83
2019-05-02T09:58:24.061Z,5.83
2019-05-02T10:01:11.882Z,3.70
2019-05-02T10:03:42.338Z,6.80
2019-05-02T10:06:13.881Z,5.95
2019-05-02T10:08:45.486Z,3.83
2019-05-02T10:11:17.054Z,7.70
2019-05-02T10:13:43.649Z,4.37
2019-05-02T10:16:12.586Z,4.90
2019-05-02T10:18:43.120Z,4.75
2019-05-02T10:21:13.556Z,4.25
2019-05-02T10:23:42.767Z,4.85
2019-05-02T10:26:12.947Z,6.60
2019-05-02T10:28:49.564Z,4.80
2019-05-02T10:31:13.464Z,5.85
2019-05-02T10:33:42.143Z,4.40
2019-05-02T10:36:13.698Z,8.58
2019-05-02T10:38:42.752Z,3.70
2019-05-02T10:41:12.107Z,5.87
2019-05-02T10:43:42.335Z,6.83
2019-05-02T10:46:15.935Z,5.05
2019-05-02T10:48:48.997Z,7.37
2019-05-02T10:51:26.332Z,5.27
2019-05-02T10:53:56.545Z,6.55
2019-05-02T10:56:25.532Z,6.05
2019-05-02T10:58:54.457Z,4.75
2019-05-02T11:01:24.983Z,7.12
2019-05-02T11:03:55.716Z,4.47
2019-05-02T11:06:25.321Z,5.70
2019-05-02T11:08:54.340Z,5.20
2019-05-02T11:11:23.750Z,5.75
2019-05-02T11:14:05.631Z,4.22
2019-05-02T11:16:45.288Z,4.60
2019-05-02T11:19:24.785Z,5.53
2019-05-02T11:21:58.746Z,4.45
2019-05-02T11:24:23.911Z,4.85
2019-05-02T11:26:54.206Z,3.92
2019-05-02T11:29:23.180Z,7.22
2019-05-02T11:31:52.786Z,4.17
2019-05-02T11:34:22.270Z,4.35
2019-05-02T11:36:52.713Z,5.00
2019-05-02T11:39:31.549Z,4.80
2019-05-02T11:41:52.810Z,7.92
2019-05-02T11:44:22.618Z,6.75
2019-05-02T11:46:52.570Z,5.65
2019-05-02T11:49:22.774Z,5.80
2019-05-02T11:51:56.932Z,5.00
2019-05-02T11:54:22.832Z,6.90
2019-05-02T11:56:53.631Z,10.25
2019-05-02T11:59:28.238Z,6.40
2019-05-02T12:02:17.537Z,3.77
2019-05-02T12:04:47.442Z,5.35
2019-05-02T12:07:14.138Z,5.87
2019-05-02T12:09:55.465Z,7.75
2019-05-02T12:12:15.711Z,3.33
2019-05-02T12:14:44.789Z,4.33
2019-05-02T12:17:13.938Z,5.72
2019-05-02T12:19:42.728Z,5.83
2019-05-02T12:22:12.852Z,3.27
2019-05-02T12:24:45.307Z,5.08
2019-05-02T12:27:12.303Z,6.12
2019-05-02T12:29:42.387Z,5.87
2019-05-02T12:32:12.178Z,4.40
2019-05-02T12:34:42.073Z,5.30
2019-05-02T12:37:12.621Z,3.77
2019-05-02T12:39:42.520Z,3.52
2019-05-02T12:42:12.693Z,4.30
2019-05-02T12:44:42.596Z,6.83
2019-05-02T12:47:11.932Z,5.08
2019-05-02T12:49:42.448Z,0.82
2019-05-02T12:52:12.913Z,1.82
2019-05-02T12:54:42.073Z,6.42
2019-05-02T12:57:12.508Z,3.17
2019-05-02T12:59:42.477Z,5.37
2019-05-02T13:02:13.348Z,8.75
2019-05-02T13:04:42.301Z,5.35
2019-05-02T13:07:12.755Z,8.08
2019-05-02T13:09:42.100Z,4.50
2019-05-02T13:12:13.438Z,5.53
2019-05-02T13:14:42.429Z,5.83
2019-05-02T13:17:12.053Z,9.00
2019-05-02T13:19:48.871Z,4.08
2019-05-02T13:22:32.374Z,5.20
2019-05-02T13:25:02.520Z,6.53
2019-05-02T13:27:43.015Z,3.70
2019-05-02T13:30:03.359Z,5.58
2019-05-02T13:32:33.971Z,1.95
2019-05-02T13:35:12.835Z,2.22
2019-05-02T13:37:42.408Z,4.72
2019-05-02T13:40:26.580Z,6.25
2019-05-02T13:42:55.293Z,3.37
2019-05-02T13:45:34.800Z,4.95
2019-05-02T13:48:03.658Z,4.30
2019-05-02T13:50:32.377Z,3.20
2019-05-02T13:53:02.675Z,4.97
2019-05-02T13:55:36.233Z,2.25
2019-05-02T13:58:05.257Z,5.42
2019-05-02T14:00:36.082Z,5.85
2019-05-02T14:03:04.793Z,2.60
2019-05-02T14:05:33.800Z,4.62
2019-05-02T14:08:22.475Z,3.10
2019-05-02T14:10:58.800Z,3.15
2019-05-02T14:13:27.604Z,2.12
2019-05-02T14:15:56.661Z,2.15
2019-05-02T14:18:28.878Z,9.13
2019-05-02T14:20:55.911Z,4.22
2019-05-02T14:23:26.599Z,1.72
2019-05-02T14:25:55.328Z,3.05
2019-05-02T14:28:26.829Z,1.50
2019-05-02T14:30:54.874Z,2.40
2019-05-02T14:33:25.191Z,2.20
2019-05-02T14:35:54.160Z,1.95
2019-05-02T14:38:22.878Z,4.72
2019-05-02T14:40:53.166Z,3.90
2019-05-02T14:43:46.129Z,3.75
2019-05-02T14:46:12.553Z,4.30
2019-05-02T14:48:45.065Z,4.50
2019-05-02T14:51:16.717Z,3.02
2019-05-02T14:53:43.131Z,2.80
2019-05-02T14:56:16.696Z,2.25
2019-05-02T14:58:46.731Z,4.97
2019-05-02T15:01:17.140Z,4.85
2019-05-02T15:03:46.928Z,4.22
2019-05-02T15:06:16.169Z,4.90
2019-05-02T15:08:45.065Z,2.85
2019-05-02T15:11:14.373Z,4.10
2019-05-02T15:13:45.296Z,3.62
2019-05-02T15:16:17.543Z,4.70
2019-05-02T15:18:47.598Z,4.12
2019-05-02T15:21:23.103Z,3.95
2019-05-02T15:23:54.377Z,3.95
2019-05-02T15:26:26.408Z,4.67
2019-05-02T15:28:53.111Z,3.92
2019-05-02T15:31:29.179Z,3.40
2019-05-02T15:34:01.496Z,3.22
2019-05-02T15:36:29.513Z,7.00
2019-05-02T15:41:29.698Z,5.00
2019-05-02T15:43:58.470Z,7.53
2019-05-02T15:46:28.358Z,4.30
2019-05-02T15:49:01.749Z,2.33
2019-05-02T15:51:27.798Z,2.40
2019-05-02T15:54:06.044Z,3.12
2019-05-02T15:56:32.469Z,4.20
2019-05-02T15:59:06.207Z,3.35
2019-05-02T16:01:36.573Z,5.22
2019-05-02T16:04:07.658Z,3.15
2019-05-02T16:06:36.461Z,5.35
2019-05-02T16:09:06.876Z,4.20
2019-05-02T16:11:35.711Z,4.37
2019-05-02T16:14:04.522Z,7.62
2019-05-02T16:16:36.688Z,7.22
2019-05-02T16:19:05.445Z,8.10
2019-05-02T16:21:35.730Z,6.42
2019-05-02T16:24:22.507Z,2.85
2019-05-02T16:26:54.186Z,5.53
2019-05-02T16:29:28.097Z,5.30
2019-05-02T16:31:59.781Z,6.85
2019-05-02T16:34:31.711Z,3.20
2019-05-02T16:37:16.604Z,4.60
2019-05-02T16:39:49.383Z,8.70
2019-05-02T16:42:13.164Z,6.83
2019-05-02T16:44:42.927Z,7.53
2019-05-02T16:47:13.942Z,5.53
2019-05-02T16:49:42.862Z,5.97
2019-05-02T16:52:12.749Z,10.55
2019-05-02T16:54:43.833Z,7.22
2019-05-02T16:57:12.658Z,11.93
2019-05-02T16:59:42.611Z,5.50
2019-05-02T17:02:12.181Z,6.35
2019-05-02T17:04:42.900Z,7.97
2019-05-02T17:07:16.618Z,5.30
2019-05-02T17:09:46.821Z,10.40
2019-05-02T17:12:15.624Z,4.90
2019-05-02T17:14:53.549Z,8.15
2019-05-02T17:17:17.083Z,8.88
2019-05-02T17:19:45.813Z,6.03
2019-05-02T17:22:16.765Z,3.02
2019-05-02T17:24:44.937Z,8.85
2019-05-02T17:27:20.582Z,4.70
2019-05-02T17:29:45.775Z,6.00
2019-05-02T17:32:14.502Z,10.60
2019-05-02T17:34:43.212Z,5.75
2019-05-02T17:37:14.061Z,9.30
2019-05-02T17:39:46.046Z,6.08
2019-05-02T17:42:17.077Z,11.28
2019-05-02T17:44:45.509Z,9.48
2019-05-02T17:47:14.460Z,5.15
2019-05-02T17:49:43.276Z,4.47
2019-05-02T17:52:19.122Z,6.65
2019-05-02T17:54:47.116Z,7.42
2019-05-02T17:57:15.834Z,9.73
2019-05-02T17:59:45.211Z,6.12
2019-05-02T18:02:15.926Z,7.28
2019-05-02T18:04:46.542Z,4.35
2019-05-02T18:07:18.139Z,2.52
2019-05-02T18:09:46.458Z,7.80
2019-05-02T18:12:16.328Z,2.92
2019-05-02T18:14:46.321Z,6.45
2019-05-02T18:17:16.441Z,7.92
2019-05-02T18:19:45.226Z,5.62
2019-05-02T18:22:23.492Z,7.53
2019-05-02T18:24:46.515Z,8.28
2019-05-02T18:27:15.372Z,7.17
2019-05-02T18:29:45.683Z,4.85
2019-05-02T18:32:17.460Z,4.20
2019-05-02T18:34:45.008Z,6.53
2019-05-02T18:37:14.145Z,2.65
2019-05-02T18:39:49.875Z,6.20
2019-05-02T18:42:16.555Z,3.80
2019-05-02T18:44:48.220Z,3.05
2019-05-02T18:47:20.087Z,6.78
2019-05-02T18:49:46.528Z,5.45
2019-05-02T18:52:15.610Z,4.87
2019-05-02T18:54:47.396Z,3.95
2019-05-02T18:57:17.168Z,5.20
2019-05-02T18:59:46.591Z,3.05
2019-05-02T19:02:15.673Z,2.15
2019-05-02T19:04:44.533Z,5.75
2019-05-02T19:07:15.916Z,4.70
2019-05-02T19:09:51.204Z,2.65
2019-05-02T19:12:25.733Z,5.40
2019-05-02T19:14:47.488Z,6.25
2019-05-02T19:17:16.283Z,4.08
2019-05-02T19:19:46.831Z,3.27
2019-05-02T19:22:17.030Z,6.35
2019-05-02T19:24:46.383Z,4.80
2019-05-02T19:27:21.003Z,6.05
2019-05-02T19:29:48.407Z,10.30
2019-05-02T19:32:25.481Z,3.33
2019-05-02T19:34:48.589Z,5.65
2019-05-02T19:37:17.738Z,6.50
2019-05-02T19:39:48.867Z,10.28
2019-05-02T19:42:22.541Z,8.73
2019-05-02T19:44:52.836Z,4.92
2019-05-02T19:47:22.019Z,7.42
2019-05-02T19:49:52.293Z,7.92
2019-05-02T19:52:22.151Z,6.75
2019-05-02T19:54:51.902Z,5.87
2019-05-02T19:57:26.176Z,5.58
2019-05-02T19:59:57.137Z,4.33
2019-05-02T20:02:23.619Z,5.72
2019-05-02T20:04:52.329Z,6.80
2019-05-02T20:07:22.549Z,6.75
2019-05-02T20:09:52.416Z,5.37
2019-05-02T20:12:21.984Z,5.78
2019-05-02T20:14:51.452Z,6.30
2019-05-02T20:17:23.900Z,8.53
2019-05-02T20:19:52.948Z,6.03
2019-05-02T20:22:25.339Z,5.05
2019-05-02T20:25:00.253Z,2.33
2019-05-02T20:27:28.264Z,3.98
2019-05-02T20:29:56.641Z,8.58
2019-05-02T20:32:25.352Z,3.40
2019-05-02T20:34:54.144Z,5.60
2019-05-02T20:37:23.654Z,3.42
2019-05-02T20:39:53.805Z,2.83
2019-05-02T20:42:22.480Z,5.15
2019-05-02T20:44:52.777Z,6.37
2019-05-02T20:47:24.052Z,5.50
2019-05-02T20:49:53.168Z,5.78
2019-05-02T20:52:22.799Z,6.03
2019-05-02T20:54:52.426Z,5.40
2019-05-02T20:57:21.468Z,5.05
2019-05-02T20:59:52.588Z,6.97
2019-05-02T21:02:21.650Z,5.87
2019-05-02T21:04:52.160Z,9.28
2019-05-02T21:07:26.685Z,8.80
2019-05-02T21:10:03.073Z,5.72
2019-05-02T21:12:33.617Z,5.97
2019-05-02T21:15:02.471Z,5.33
2019-05-02T21:17:32.742Z,5.47
2019-05-02T21:20:02.298Z,4.35
2019-05-02T21:22:32.745Z,7.90
2019-05-02T21:25:02.894Z,7.80
2019-05-02T21:27:32.385Z,5.33
2019-05-02T21:30:01.418Z,3.95
2019-05-02T21:32:32.048Z,8.90
2019-05-02T21:35:02.745Z,5.45
2019-05-02T21:37:32.007Z,6.20
2019-05-02T21:40:02.666Z,13.28
2019-05-02T21:42:31.935Z,9.33
2019-05-02T21:45:02.432Z,6.58
2019-05-02T21:47:31.932Z,4.55
2019-05-02T21:50:03.045Z,8.83
2019-05-02T21:52:49.677Z,5.22
2019-05-02T21:55:23.526Z,8.05
2019-05-02T21:57:52.450Z,8.03
2019-05-02T22:00:43.021Z,5.83
2019-05-02T22:03:12.595Z,6.45
2019-05-02T22:05:42.335Z,3.72
2019-05-02T22:08:12.140Z,10.85
2019-05-02T22:10:42.646Z,4.90
2019-05-02T22:13:11.896Z,7.67
2019-05-02T22:15:42.101Z,9.65
2019-05-02T22:18:10.799Z,4.42
2019-05-02T22:20:39.442Z,6.55
2019-05-02T22:23:08.313Z,9.00
2019-05-02T22:25:37.507Z,7.95
2019-05-02T22:28:06.141Z,5.42
2019-05-02T22:30:35.192Z,13.65
2019-05-02T22:33:05.363Z,4.40
2019-05-02T22:35:34.086Z,8.83
2019-05-02T22:38:22.408Z,5.12
2019-05-02T22:40:52.684Z,6.62
2019-05-02T22:43:22.130Z,5.53
2019-05-02T22:45:51.620Z,9.15
2019-05-02T22:48:22.375Z,5.87
2019-05-02T22:50:52.251Z,10.18
2019-05-02T22:53:21.635Z,8.03
2019-05-02T22:55:51.773Z,6.05
2019-05-02T22:58:22.229Z,10.98
2019-05-02T23:00:52.277Z,9.08
2019-05-02T23:03:21.531Z,10.32
2019-05-02T23:05:52.703Z,8.78
2019-05-02T23:08:22.032Z,7.80
2019-05-02T23:10:51.941Z,9.55
2019-05-02T23:13:21.987Z,11.30
2019-05-02T23:15:52.175Z,8.38
2019-05-02T23:18:22.799Z,8.83
2019-05-02T23:20:52.586Z,8.60
2019-05-02T23:23:24.177Z,5.80
2019-05-02T23:26:06.606Z,9.05
2019-05-02T23:28:37.299Z,7.83
2019-05-02T23:31:06.947Z,8.98
2019-05-02T23:33:53.579Z,12.13
2019-05-02T23:36:22.542Z,11.22
2019-05-02T23:38:52.204Z,8.28
2019-05-02T23:41:22.101Z,7.50
2019-05-02T23:43:52.439Z,11.43
2019-05-02T23:46:22.389Z,7.12
2019-05-02T23:48:52.654Z,11.78
2019-05-02T23:51:22.613Z,11.50
2019-05-02T23:53:52.862Z,5.25
2019-05-02T23:56:23.022Z,4.95
2019-05-02T23:58:52.085Z,9.20
